Time;durP1;ratioP1;P1;durP2;ratioP2;P2;SDS_P1;SDS_P2;PMS_P1;PMS_P2;Temp;Humidity;BMP_temperature;BMP_pressure;BME280_temperature;BME280_humidity;BME280_pressure;Samples;Min_cycle;Max_cycle;Signal;HPM_P1;HPM_P2
2022/07/27 00:00:53;;;;;;;2.22;1.58;;;20.30;99.90;;;;;;4992978;28;20198;-92
2022/07/27 00:03:19;;;;;;;2.50;1.17;;;20.30;99.90;;;;;;4993709;28;20285;-91
2022/07/27 00:05:45;;;;;;;1.88;1.50;;;20.30;99.90;;;;;;5007876;28;20242;-92
2022/07/27 00:08:11;;;;;;;3.58;1.65;;;20.20;99.90;;;;;;4999156;28;20272;-92
2022/07/27 00:10:37;;;;;;;2.55;1.38;;;20.20;99.90;;;;;;4993708;28;20182;-90
2022/07/27 00:13:05;;;;;;;3.53;1.60;;;20.10;99.90;;;;;;5009090;28;20179;-90
2022/07/27 00:15:32;;;;;;;2.00;1.65;;;20.10;99.90;;;;;;4995208;28;20194;-89
2022/07/27 00:17:59;;;;;;;1.67;1.50;;;20.10;99.90;;;;;;4988744;28;20275;-90
2022/07/27 00:20:30;;;;;;;4.15;1.65;;;20.10;99.90;;;;;;4986270;28;20187;-90
2022/07/27 00:22:56;;;;;;;3.05;1.48;;;20.00;99.90;;;;;;4978625;28;20294;-90
2022/07/27 00:25:25;;;;;;;2.72;1.40;;;20.00;99.90;;;;;;4997638;28;20172;-90
2022/07/27 00:27:51;;;;;;;1.55;1.38;;;20.00;99.90;;;;;;4990944;28;20192;-90
2022/07/27 00:30:17;;;;;;;2.95;1.52;;;19.90;99.90;;;;;;4982244;28;20184;-90
2022/07/27 00:32:43;;;;;;;2.60;1.60;;;19.90;99.90;;;;;;4982361;28;20206;-90
2022/07/27 00:35:15;;;;;;;3.03;1.73;;;19.90;99.90;;;;;;4982040;28;20194;-90
2022/07/27 00:37:40;;;;;;;3.53;1.60;;;19.90;99.90;;;;;;4982419;28;20262;-90
2022/07/27 00:40:07;;;;;;;3.13;1.40;;;19.90;99.90;;;;;;4982412;28;20271;-90
2022/07/27 00:42:33;;;;;;;5.22;1.50;;;19.90;99.90;;;;;;4982066;28;20293;-90
2022/07/27 00:44:59;;;;;;;3.25;1.70;;;19.90;99.90;;;;;;4982420;28;20168;-90
2022/07/27 00:47:26;;;;;;;1.52;1.40;;;19.80;99.90;;;;;;4997880;28;20230;-90
2022/07/27 00:49:52;;;;;;;2.33;1.40;;;19.80;99.90;;;;;;4997240;28;20167;-89
2022/07/27 00:52:20;;;;;;;3.38;1.80;;;19.70;99.90;;;;;;4981766;28;20199;-90
2022/07/27 00:54:46;;;;;;;2.45;1.85;;;19.70;99.90;;;;;;4992553;28;20178;-90
2022/07/27 00:57:13;;;;;;;2.42;1.48;;;19.60;99.90;;;;;;5001379;28;20170;-90
2022/07/27 00:59:40;;;;;;;3.17;1.70;;;19.60;99.90;;;;;;5001048;28;20175;-90
2022/07/27 01:02:07;;;;;;;1.88;1.60;;;19.50;99.90;;;;;;5001107;28;20210;-90
2022/07/27 01:04:33;;;;;;;3.13;1.63;;;19.60;99.90;;;;;;4990326;28;20172;-90
2022/07/27 01:07:01;;;;;;;2.85;1.65;;;19.60;99.90;;;;;;4983074;28;20178;-90
2022/07/27 01:12:16;;;;;;;2.60;1.55;;;19.50;99.90;;;;;;5017136;28;20794;-90
2022/07/27 01:14:42;;;;;;;2.63;1.70;;;19.50;99.90;;;;;;5000509;28;20233;-90
2022/07/27 01:17:08;;;;;;;4.00;1.90;;;19.40;99.90;;;;;;5001006;28;20189;-90
2022/07/27 01:19:35;;;;;;;1.75;1.58;;;19.40;99.90;;;;;;5000473;28;20179;-90
2022/07/27 01:22:02;;;;;;;2.88;1.70;;;19.30;99.90;;;;;;5000458;28;20199;-90
2022/07/27 01:24:28;;;;;;;2.15;1.60;;;19.30;99.90;;;;;;4999798;28;20194;-89
2022/07/27 01:26:54;;;;;;;4.07;1.55;;;19.20;99.90;;;;;;5000494;28;20182;-90
2022/07/27 01:29:20;;;;;;;2.28;1.65;;;19.20;99.90;;;;;;5000279;28;20167;-90
2022/07/27 01:31:46;;;;;;;2.92;1.50;;;19.10;99.90;;;;;;5000275;28;20210;-90
2022/07/27 01:34:12;;;;;;;2.08;1.70;;;19.00;99.90;;;;;;5000412;28;20186;-90
2022/07/27 01:36:39;;;;;;;2.70;1.70;;;18.90;99.90;;;;;;5000487;28;20178;-90
2022/07/27 01:39:04;;;;;;;1.95;1.73;;;18.80;99.90;;;;;;5000318;28;20205;-90
2022/07/27 01:41:30;;;;;;;2.33;1.75;;;18.80;99.90;;;;;;5000348;28;20287;-90
2022/07/27 01:43:56;;;;;;;1.80;1.55;;;18.80;99.90;;;;;;4999971;28;20208;-90
2022/07/27 01:46:23;;;;;;;5.57;1.77;;;18.90;99.90;;;;;;5000577;28;20182;-90
2022/07/27 01:48:49;;;;;;;3.83;1.55;;;18.90;99.90;;;;;;5000308;28;20240;-90
2022/07/27 01:51:15;;;;;;;2.80;1.88;;;18.90;99.90;;;;;;4999900;28;20226;-90
2022/07/27 01:53:41;;;;;;;3.13;1.95;;;18.80;99.90;;;;;;5000104;28;20265;-89
2022/07/27 01:56:11;;;;;;;3.22;1.67;;;18.80;99.90;;;;;;5000042;28;20222;-90
2022/07/27 01:58:38;;;;;;;2.08;1.70;;;18.80;99.90;;;;;;5000346;28;20186;-89
2022/07/27 02:01:06;;;;;;;5.00;1.85;;;18.80;99.90;;;;;;5000152;28;20364;-90
2022/07/27 02:03:33;;;;;;;2.97;1.80;;;18.90;99.90;;;;;;4999612;28;20209;-90
2022/07/27 02:05:59;;;;;;;1.77;1.60;;;18.90;99.90;;;;;;4999939;28;20206;-90
2022/07/27 02:08:25;;;;;;;5.43;1.83;;;18.90;99.90;;;;;;5000443;28;20182;-89
2022/07/27 02:13:35;;;;;;;3.78;1.70;;;18.90;99.90;;;;;;5015994;28;20186;-90
2022/07/27 02:16:01;;;;;;;3.05;1.85;;;18.90;99.90;;;;;;5000270;28;20185;-90
2022/07/27 02:18:27;;;;;;;2.40;1.88;;;18.90;99.90;;;;;;5000882;28;20205;-89
2022/07/27 02:20:53;;;;;;;1.83;1.60;;;18.90;99.90;;;;;;5001707;28;20202;-90
2022/07/27 02:23:19;;;;;;;1.90;1.70;;;18.90;99.90;;;;;;5005349;28;20209;-89
2022/07/27 02:25:46;;;;;;;2.75;1.60;;;18.90;99.90;;;;;;5015802;28;20186;-89
2022/07/27 02:28:15;;;;;;;1.98;1.38;;;18.90;99.90;;;;;;5016270;28;20181;-90
2022/07/27 02:30:42;;;;;;;3.03;1.60;;;18.80;99.90;;;;;;4999616;28;20190;-90
2022/07/27 02:33:09;;;;;;;2.97;1.50;;;18.90;99.90;;;;;;4999398;28;20181;-90
2022/07/27 02:35:35;;;;;;;3.10;1.80;;;18.90;99.90;;;;;;4999036;28;20174;-90
2022/07/27 02:38:03;;;;;;;3.45;2.20;;;18.80;99.90;;;;;;4999520;28;20178;-90
2022/07/27 02:40:29;;;;;;;3.40;1.90;;;18.70;99.90;;;;;;4999638;28;20179;-90
2022/07/27 02:42:55;;;;;;;2.75;2.05;;;18.60;99.90;;;;;;4999252;28;20206;-90
2022/07/27 02:45:21;;;;;;;4.55;1.77;;;18.50;99.90;;;;;;4999487;28;20237;-89
2022/07/27 02:47:47;;;;;;;4.47;2.10;;;18.50;99.90;;;;;;4999436;28;20201;-90
2022/07/27 02:50:13;;;;;;;2.25;2.00;;;18.50;99.90;;;;;;4999527;28;20263;-90
2022/07/27 02:52:39;;;;;;;2.80;1.88;;;18.50;99.90;;;;;;4999267;28;20234;-89
2022/07/27 02:55:06;;;;;;;3.38;2.00;;;18.50;99.90;;;;;;4998956;28;20206;-90
2022/07/27 02:57:34;;;;;;;2.03;1.70;;;18.40;99.90;;;;;;4999151;28;20190;-90
2022/07/27 03:00:00;;;;;;;2.40;1.98;;;18.40;99.90;;;;;;4985605;28;20219;-90
2022/07/27 03:02:26;;;;;;;3.77;1.97;;;18.30;99.90;;;;;;4995762;28;20218;-90
2022/07/27 03:04:52;;;;;;;4.63;2.23;;;18.20;99.90;;;;;;4996204;28;20183;-90
2022/07/27 03:07:18;;;;;;;3.03;2.03;;;18.20;99.90;;;;;;4984895;28;20191;-89
2022/07/27 03:09:44;;;;;;;2.60;2.22;;;18.20;99.90;;;;;;4979957;28;20666;-90
2022/07/27 03:12:10;;;;;;;3.33;1.92;;;18.20;99.90;;;;;;4987804;28;21876;-90
2022/07/27 03:14:41;;;;;;;2.83;2.00;;;18.30;99.90;;;;;;4998360;28;20191;-91
2022/07/27 03:17:07;;;;;;;2.07;1.87;;;18.30;99.90;;;;;;4994107;28;20168;-91
2022/07/27 03:19:33;;;;;;;2.97;1.93;;;18.30;99.90;;;;;;4998109;28;20175;-91
2022/07/27 03:21:59;;;;;;;4.67;2.03;;;18.40;99.90;;;;;;4999346;28;20202;-91
2022/07/27 03:24:28;;;;;;;2.40;1.63;;;18.40;99.90;;;;;;4998506;28;20212;-90
2022/07/27 03:26:54;;;;;;;2.20;2.10;;;18.30;99.90;;;;;;4998845;28;20225;-91
2022/07/27 03:29:20;;;;;;;2.13;1.73;;;18.30;99.90;;;;;;4994380;28;20167;-91
2022/07/27 03:31:46;;;;;;;2.43;1.90;;;18.30;99.90;;;;;;4978255;28;20207;-91
2022/07/27 03:34:12;;;;;;;4.03;2.17;;;18.30;99.90;;;;;;4984814;28;20210;-91
2022/07/27 03:36:39;;;;;;;1.90;1.80;;;18.30;99.90;;;;;;4992204;28;20180;-91
2022/07/27 03:39:06;;;;;;;3.87;1.80;;;18.30;99.90;;;;;;4960242;28;20176;-91
2022/07/27 03:41:32;;;;;;;4.13;2.10;;;18.20;99.90;;;;;;4960285;28;20196;-91
2022/07/27 03:43:58;;;;;;;3.13;1.98;;;18.10;99.90;;;;;;4977890;28;20215;-90
2022/07/27 03:46:23;;;;;;;3.10;2.30;;;18.00;99.90;;;;;;4961488;28;20183;-91
2022/07/27 03:48:49;;;;;;;2.30;2.10;;;18.00;99.90;;;;;;5012473;28;20338;-91
2022/07/27 03:51:15;;;;;;;1.90;1.80;;;17.90;99.90;;;;;;4999954;28;20254;-91
2022/07/27 03:53:41;;;;;;;3.23;1.97;;;17.90;99.90;;;;;;5001303;28;20265;-91
2022/07/27 03:56:07;;;;;;;3.27;2.10;;;17.90;99.90;;;;;;4983639;28;20184;-91
2022/07/27 03:58:41;;;;;;;3.10;2.17;;;17.90;99.90;;;;;;4982640;28;20189;-91
2022/07/27 04:01:07;;;;;;;4.80;2.20;;;17.90;99.90;;;;;;4982879;28;20298;-91
2022/07/27 04:03:33;;;;;;;2.43;2.00;;;17.90;99.90;;;;;;4982438;28;20667;-92
2022/07/27 04:05:59;;;;;;;2.27;2.00;;;17.90;99.90;;;;;;4982525;28;20242;-91
2022/07/27 04:08:25;;;;;;;2.77;2.37;;;17.90;99.90;;;;;;5002125;28;20183;-91
2022/07/27 04:10:51;;;;;;;3.77;2.23;;;18.00;99.90;;;;;;4995700;28;20203;-91
2022/07/27 04:13:20;;;;;;;2.80;2.60;;;18.00;99.90;;;;;;4980875;28;20206;-91
2022/07/27 04:15:56;;;;;;;5.93;2.27;;;18.00;99.90;;;;;;4985134;28;20266;-90
2022/07/27 04:18:28;;;;;;;2.20;2.00;;;18.00;99.90;;;;;;5013580;28;20201;-91
2022/07/27 04:21:02;;;;;;;4.53;2.20;;;18.10;99.90;;;;;;4997634;28;20199;-91
2022/07/27 04:23:33;;;;;;;4.23;2.00;;;18.10;99.90;;;;;;4994306;28;20221;-91
2022/07/27 04:26:00;;;;;;;3.40;2.00;;;18.10;99.90;;;;;;4986355;28;20185;-83
2022/07/27 04:28:26;;;;;;;4.55;2.40;;;18.10;99.90;;;;;;5004034;28;20175;-83
2022/07/27 04:30:52;;;;;;;4.83;2.43;;;18.20;99.90;;;;;;4994832;28;20213;-84
2022/07/27 04:33:18;;;;;;;2.50;2.00;;;18.10;99.90;;;;;;4982207;28;20286;-84
2022/07/27 04:35:44;;;;;;;2.90;2.10;;;18.20;99.90;;;;;;4981181;28;20183;-84
2022/07/27 04:38:10;;;;;;;3.20;2.07;;;18.20;99.90;;;;;;4982134;28;20180;-90
2022/07/27 04:40:36;;;;;;;1.95;1.77;;;18.20;99.90;;;;;;4982080;28;20190;-90
2022/07/27 04:43:03;;;;;;;4.17;1.80;;;18.20;99.90;;;;;;4990668;28;20205;-91
2022/07/27 04:45:29;;;;;;;2.83;2.10;;;18.20;99.90;;;;;;5000743;28;20174;-91
2022/07/27 04:47:55;;;;;;;2.47;2.10;;;18.20;99.90;;;;;;5001144;28;20182;-90
2022/07/27 04:50:21;;;;;;;2.30;2.20;;;18.10;99.90;;;;;;4985459;28;20183;-91
2022/07/27 04:52:48;;;;;;;4.67;2.20;;;18.10;99.90;;;;;;4981129;28;20234;-91
2022/07/27 04:55:14;;;;;;;5.00;2.17;;;18.10;99.90;;;;;;4980345;28;20187;-90
2022/07/27 04:57:57;;;;;;;4.18;2.17;;;18.20;99.90;;;;;;4981788;28;20186;-90
2022/07/27 05:00:26;;;;;;;2.57;2.10;;;18.30;99.90;;;;;;4981861;28;20202;-90
2022/07/27 05:02:52;;;;;;;2.87;2.30;;;18.30;99.90;;;;;;4981278;28;20206;-90
2022/07/27 05:05:18;;;;;;;3.00;2.03;;;18.30;99.90;;;;;;4981762;28;20202;-92
2022/07/27 05:07:48;;;;;;;3.87;2.20;;;18.40;99.90;;;;;;4980998;28;20214;-90
2022/07/27 05:10:57;;;;;;;3.85;1.90;;;18.50;99.90;;;;;;4981727;28;20167;-90
2022/07/27 05:13:23;;;;;;;3.45;2.30;;;18.50;99.90;;;;;;4981391;28;20179;-90
2022/07/27 05:15:54;;;;;;;2.70;2.38;;;18.50;99.90;;;;;;4980638;28;20190;-90
2022/07/27 05:18:20;;;;;;;2.58;2.10;;;18.50;99.90;;;;;;4981158;28;20175;-91
2022/07/27 05:20:45;;;;;;;2.97;1.90;;;18.50;99.90;;;;;;4988023;28;20256;-90
2022/07/27 05:23:11;;;;;;;2.40;2.20;;;18.50;99.90;;;;;;5000533;28;20268;-90
2022/07/27 05:25:37;;;;;;;3.30;2.43;;;18.40;99.90;;;;;;4997152;28;20202;-90
2022/07/27 05:28:04;;;;;;;2.40;2.15;;;18.40;99.90;;;;;;4997649;28;20215;-83
2022/07/27 05:30:30;;;;;;;3.90;2.50;;;18.50;99.90;;;;;;5000029;28;20191;-87
2022/07/27 05:32:56;;;;;;;3.42;3.00;;;18.50;99.90;;;;;;4985257;28;20190;-85
2022/07/27 05:35:22;;;;;;;3.63;2.20;;;18.50;99.90;;;;;;4980189;28;20205;-85
2022/07/27 05:37:49;;;;;;;4.20;2.50;;;18.60;99.90;;;;;;4972200;28;20202;-86
2022/07/27 05:40:16;;;;;;;2.70;2.45;;;18.70;99.90;;;;;;4960672;28;20194;-90
2022/07/27 05:42:43;;;;;;;2.90;2.33;;;18.70;99.90;;;;;;4960719;28;20222;-90
2022/07/27 05:45:10;;;;;;;2.80;2.35;;;18.80;99.90;;;;;;4961241;28;20185;-89
2022/07/27 05:47:37;;;;;;;8.38;2.90;;;18.90;99.90;;;;;;4961387;28;20180;-90
2022/07/27 05:50:03;;;;;;;2.75;2.17;;;18.90;99.90;;;;;;4961527;28;20187;-90
2022/07/27 05:52:29;;;;;;;3.45;2.38;;;19.00;99.90;;;;;;4961349;28;20199;-90
2022/07/27 05:54:55;;;;;;;2.40;2.20;;;19.10;99.90;;;;;;4961267;28;20183;-90
2022/07/27 05:57:26;;;;;;;4.20;2.40;;;19.10;99.90;;;;;;4968673;28;20648;-90
2022/07/27 05:59:53;;;;;;;3.38;2.47;;;19.10;99.90;;;;;;4980275;28;20178;-90
2022/07/27 06:02:20;;;;;;;2.97;2.20;;;19.20;99.90;;;;;;4980641;28;20226;-90
2022/07/27 06:04:46;;;;;;;4.47;2.70;;;19.20;99.90;;;;;;4980069;28;20197;-90
2022/07/27 06:09:56;;;;;;;4.90;2.92;;;19.40;99.90;;;;;;5012410;28;20691;-91
2022/07/27 06:12:22;;;;;;;3.13;2.72;;;19.40;99.90;;;;;;4996696;28;20203;-90
2022/07/27 06:14:48;;;;;;;2.85;2.50;;;19.50;99.90;;;;;;4984865;28;20292;-91
2022/07/27 06:18:02;;;;;;;3.30;2.70;;;19.60;99.90;;;;;;4980778;28;20183;-91
2022/07/27 06:20:29;;;;;;;8.23;3.65;;;19.70;99.90;;;;;;4993443;28;20168;-91
2022/07/27 06:22:59;;;;;;;4.72;3.20;;;19.70;99.90;;;;;;4977083;28;20320;-92
2022/07/27 06:25:25;;;;;;;4.80;3.50;;;19.70;99.90;;;;;;4977106;28;20172;-91
2022/07/27 06:28:20;;;;;;;5.22;3.63;;;19.70;99.90;;;;;;4976439;28;20187;-91
2022/07/27 06:30:46;;;;;;;4.88;3.92;;;19.80;99.90;;;;;;4976799;28;20362;-91
2022/07/27 06:33:13;;;;;;;4.00;3.60;;;19.80;99.90;;;;;;4976594;28;20188;-91
2022/07/27 06:35:39;;;;;;;7.18;3.90;;;19.90;99.90;;;;;;4976894;28;20188;-91
2022/07/27 06:38:06;;;;;;;4.18;3.42;;;19.80;99.90;;;;;;4980203;28;20183;-91
2022/07/27 06:40:32;;;;;;;4.20;3.65;;;19.80;99.90;;;;;;4996300;28;20293;-91
2022/07/27 06:42:58;;;;;;;7.15;3.58;;;19.90;99.90;;;;;;4979878;28;20207;-91
2022/07/27 06:45:25;;;;;;;5.15;3.25;;;20.00;99.90;;;;;;4979955;28;20346;-92
2022/07/27 06:47:51;;;;;;;4.28;3.60;;;20.00;99.90;;;;;;4980256;28;20179;-91
2022/07/27 06:50:19;;;;;;;3.88;3.55;;;20.00;99.90;;;;;;4979917;28;20187;-91
2022/07/27 06:52:45;;;;;;;4.88;3.70;;;20.10;99.90;;;;;;4980051;28;20352;-91
2022/07/27 06:55:12;;;;;;;4.03;3.40;;;20.20;99.90;;;;;;4979897;28;20190;-91
2022/07/27 06:57:38;;;;;;;4.57;3.80;;;20.20;99.90;;;;;;4979977;28;20183;-91
2022/07/27 07:00:06;;;;;;;5.03;3.63;;;20.10;99.90;;;;;;4979912;28;20253;-91
2022/07/27 07:02:32;;;;;;;4.22;3.63;;;20.20;99.90;;;;;;4979887;28;20294;-91
2022/07/27 07:04:58;;;;;;;4.75;3.55;;;20.30;99.90;;;;;;4979901;28;20266;-91
2022/07/27 07:07:24;;;;;;;5.15;3.13;;;20.50;99.90;;;;;;4975061;28;20190;-91
2022/07/27 07:09:50;;;;;;;3.80;3.17;;;20.80;99.90;;;;;;4960676;28;20183;-93
2022/07/27 07:12:17;;;;;;;5.32;3.67;;;21.10;99.90;;;;;;4960523;28;20200;-91
2022/07/27 07:14:44;;;;;;;7.18;3.17;;;21.30;99.90;;;;;;4959768;28;20195;-92
2022/07/27 07:17:10;;;;;;;4.30;3.45;;;21.50;99.90;;;;;;4959990;28;20216;-91
2022/07/27 07:19:36;;;;;;;4.35;3.17;;;21.70;99.90;;;;;;4960341;28;20456;-91
2022/07/27 07:22:02;;;;;;;10.75;3.47;;;21.70;99.90;;;;;;4981008;23;20377;-41
2022/07/27 07:24:29;;;;;;;3.72;2.90;;;21.90;99.90;;;;;;4995932;28;20261;-41
2022/07/27 07:26:55;;;;;;;3.30;3.00;;;22.00;99.90;;;;;;4980431;28;20210;-40
2022/07/27 07:29:20;;;;;;;3.85;3.40;;;22.00;99.90;;;;;;4986587;28;20204;-40
2022/07/27 07:31:46;;;;;;;4.15;3.15;;;22.10;99.90;;;;;;4961379;28;20271;-39
2022/07/27 07:34:12;;;;;;;3.45;3.15;;;22.20;99.90;;;;;;4975661;28;20172;-38
2022/07/27 07:36:38;;;;;;;4.30;3.00;;;22.40;99.90;;;;;;4985790;23;20227;-88
2022/07/27 07:39:04;;;;;;;4.82;3.33;;;22.60;99.90;;;;;;4977022;28;20206;-87
2022/07/27 07:41:30;;;;;;;4.38;3.10;;;22.70;99.90;;;;;;4980914;28;20707;-88
2022/07/27 07:43:56;;;;;;;5.88;3.08;;;22.80;99.90;;;;;;4974775;28;20439;-88
2022/07/27 07:46:21;;;;;;;3.20;2.88;;;22.90;99.90;;;;;;4942945;28;20195;-88
2022/07/27 07:48:47;;;;;;;3.47;3.17;;;22.90;99.90;;;;;;4951491;28;20637;-87
2022/07/27 07:51:13;;;;;;;5.80;3.60;;;22.90;99.90;;;;;;5014291;23;20234;-35
2022/07/27 07:53:39;;;;;;;3.40;3.10;;;23.00;99.90;;;;;;4996378;28;20250;-35
2022/07/27 07:56:05;;;;;;;4.00;3.08;;;22.80;99.90;;;;;;4996423;28;20164;-35
2022/07/27 07:58:32;;;;;;;4.53;3.15;;;22.80;99.90;;;;;;4996363;28;20187;-35
2022/07/27 08:00:58;;;;;;;4.57;3.72;;;23.10;99.90;;;;;;4996401;28;20175;-35
2022/07/27 08:03:23;;;;;;;3.90;3.20;;;23.20;99.90;;;;;;4980159;28;20214;-35
2022/07/27 08:05:49;;;;;;;4.32;3.42;;;23.00;99.90;;;;;;4980121;28;20250;-34
2022/07/27 08:08:16;;;;;;;4.68;2.83;;;22.90;99.90;;;;;;4996411;28;20324;-34
2022/07/27 08:10:42;;;;;;;3.58;3.20;;;22.90;99.90;;;;;;4996536;28;20179;-36
2022/07/27 08:13:08;;;;;;;4.82;3.60;;;23.00;99.90;;;;;;4979855;28;20191;-35
2022/07/27 08:15:34;;;;;;;3.72;3.33;;;23.20;99.90;;;;;;4979725;28;20210;-34
2022/07/27 08:18:00;;;;;;;4.05;3.17;;;23.40;99.90;;;;;;4980087;28;20207;-34
2022/07/27 08:20:27;;;;;;;6.38;3.35;;;23.50;99.90;;;;;;4980064;28;20194;-35
2022/07/27 08:22:53;;;;;;;4.90;3.33;;;23.80;99.90;;;;;;4979833;28;20206;-34
2022/07/27 08:25:19;;;;;;;3.88;3.47;;;23.90;99.90;;;;;;4995793;28;20211;-34
2022/07/27 08:27:45;;;;;;;4.15;3.75;;;24.00;99.90;;;;;;4979313;28;20231;-35
2022/07/27 08:30:11;;;;;;;4.55;3.80;;;23.80;99.90;;;;;;4979625;28;20182;-35
2022/07/27 08:32:51;;;;;;;4.68;3.72;;;23.50;99.90;;;;;;4979440;28;20214;-35
2022/07/27 08:35:18;;;;;;;4.00;3.45;;;23.40;99.90;;;;;;4979736;28;20183;-34
2022/07/27 08:37:44;;;;;;;4.72;3.95;;;23.50;99.90;;;;;;4995894;28;20298;-35
2022/07/27 08:40:11;;;;;;;4.22;3.78;;;23.50;99.90;;;;;;4979438;28;20181;-35
2022/07/27 08:42:39;;;;;;;4.03;3.63;;;23.80;99.90;;;;;;4995482;28;20206;-35
2022/07/27 08:45:06;;;;;;;4.07;3.67;;;23.90;99.90;;;;;;4979282;28;20215;-34
2022/07/27 08:47:34;;;;;;;3.72;3.42;;;24.10;99.90;;;;;;4979719;28;20278;-35
2022/07/27 08:50:00;;;;;;;3.63;3.33;;;24.50;99.90;;;;;;4979340;28;20179;-34
2022/07/27 08:52:26;;;;;;;4.97;3.67;;;24.70;99.90;;;;;;4979374;28;20278;-34
2022/07/27 08:54:52;;;;;;;4.43;3.35;;;24.50;99.90;;;;;;4978937;28;20242;-35
2022/07/27 08:57:18;;;;;;;5.50;3.85;;;24.50;99.90;;;;;;4979117;28;20199;-34
2022/07/27 08:59:44;;;;;;;4.30;3.50;;;24.40;99.90;;;;;;4979395;28;20230;-36
2022/07/27 09:02:12;;;;;;;3.92;3.47;;;24.30;99.90;;;;;;4995484;28;20258;-35
2022/07/27 09:04:42;;;;;;;5.45;3.10;;;24.40;99.90;;;;;;4978817;28;20215;-35
2022/07/27 09:07:07;;;;;;;3.42;3.10;;;24.70;99.90;;;;;;4979132;28;20211;-35
2022/07/27 09:09:44;;;;;;;3.58;3.20;;;24.90;99.90;;;;;;4978820;28;20315;-34
2022/07/27 09:12:10;;;;;;;5.35;3.78;;;25.10;99.90;;;;;;4995495;28;20258;-35
2022/07/27 09:14:38;;;;;;;4.30;3.55;;;25.20;99.90;;;;;;4978873;28;20183;-35
2022/07/27 09:17:20;;;;;;;7.97;4.20;;;25.50;99.90;;;;;;4995360;28;20203;-34
2022/07/27 09:19:57;;;;;;;3.45;2.97;;;25.80;99.90;;;;;;4978918;28;20175;-35
2022/07/27 09:22:51;;;;;;;4.63;3.40;;;25.80;99.90;;;;;;4979308;28;20179;-34
2022/07/27 09:25:22;;;;;;;6.30;3.25;;;25.90;99.90;;;;;;4994974;28;20230;-35
2022/07/27 09:27:53;;;;;;;3.70;3.28;;;25.90;99.90;;;;;;4978641;28;20209;-34
2022/07/27 09:30:20;;;;;;;4.05;3.53;;;26.00;99.90;;;;;;4994996;28;20176;-35
2022/07/27 09:33:04;;;;;;;4.43;3.28;;;25.90;99.90;;;;;;4978747;28;20240;-36
2022/07/27 09:35:34;;;;;;;4.03;3.65;;;25.80;99.90;;;;;;5013199;28;20242;-34
2022/07/27 09:38:20;;;;;;;3.53;3.22;;;25.50;99.90;;;;;;4993302;28;20207;-35
2022/07/27 09:40:48;;;;;;;4.53;3.83;;;25.40;99.90;;;;;;4978187;28;20183;-34
2022/07/27 09:43:14;;;;;;;3.55;3.22;;;25.50;99.90;;;;;;4977746;28;20219;-35
2022/07/27 09:45:45;;;;;;;3.90;3.47;;;25.30;99.90;;;;;;4969403;28;20184;-34
2022/07/27 09:48:16;;;;;;;3.85;3.53;;;25.30;99.90;;;;;;4994366;28;20203;-35
2022/07/27 09:50:45;;;;;;;6.13;3.58;;;25.40;99.90;;;;;;4989434;28;20190;-35
2022/07/27 09:53:17;;;;;;;4.95;3.40;;;25.40;99.90;;;;;;4975127;28;20290;-34
2022/07/27 09:55:46;;;;;;;5.88;3.88;;;25.40;99.90;;;;;;4972022;28;20190;-36
2022/07/27 09:58:12;;;;;;;4.35;3.45;;;25.20;99.90;;;;;;4990319;28;20282;-34
2022/07/27 10:00:38;;;;;;;4.43;3.53;;;25.40;99.90;;;;;;4971660;28;20326;-34
2022/07/27 10:03:05;;;;;;;3.83;3.38;;;25.60;99.90;;;;;;5011255;28;20238;-34
2022/07/27 10:05:31;;;;;;;4.55;3.40;;;25.50;99.90;;;;;;4968290;28;20191;-35
2022/07/27 10:07:59;;;;;;;4.20;3.22;;;25.50;99.90;;;;;;4970040;28;20207;-34
2022/07/27 10:10:25;;;;;;;5.78;3.42;;;25.50;99.90;;;;;;4973854;28;20175;-35
2022/07/27 10:12:51;;;;;;;4.20;3.38;;;25.60;99.90;;;;;;4977146;28;20194;-34
2022/07/27 10:15:17;;;;;;;4.25;3.72;;;25.70;99.90;;;;;;4994221;28;20283;-34
2022/07/27 10:17:44;;;;;;;4.78;3.30;;;25.80;99.90;;;;;;4991316;28;20219;-34
2022/07/27 10:20:12;;;;;;;3.65;2.97;;;25.50;99.90;;;;;;4990762;28;20187;-35
2022/07/27 10:22:48;;;;;;;4.95;3.65;;;25.80;99.90;;;;;;4974256;28;20180;-35
2022/07/27 10:25:14;;;;;;;4.75;3.20;;;26.20;99.90;;;;;;4990539;28;20191;-35
2022/07/27 10:27:40;;;;;;;3.88;3.17;;;26.50;98.60;;;;;;4974597;28;20195;-35
2022/07/27 10:30:06;;;;;;;5.38;3.45;;;26.70;99.00;;;;;;4979535;28;20231;-34
2022/07/27 10:32:33;;;;;;;3.65;3.35;;;27.10;98.10;;;;;;4958245;28;20184;-35
2022/07/27 10:35:00;;;;;;;6.10;3.42;;;27.20;97.40;;;;;;4966468;28;20290;-35
2022/07/27 10:37:32;;;;;;;3.40;3.10;;;27.20;97.00;;;;;;4982707;28;20202;-34
2022/07/27 10:42:46;;;;;;;3.30;3.00;;;26.80;97.80;;;;;;5011079;28;20179;-35
2022/07/27 10:45:14;;;;;;;4.18;2.92;;;26.80;97.70;;;;;;4977244;28;20179;-35
2022/07/27 10:47:43;;;;;;;6.05;3.22;;;26.80;98.00;;;;;;4976182;28;20245;-35
2022/07/27 10:50:18;;;;;;;4.10;3.05;;;26.50;97.70;;;;;;4977498;28;20270;-36
2022/07/27 10:52:49;;;;;;;4.55;3.50;;;26.20;98.20;;;;;;4984021;28;20183;-35
2022/07/27 10:55:30;;;;;;;3.55;3.22;;;26.40;98.10;;;;;;4987479;28;20229;-35
2022/07/27 10:58:01;;;;;;;3.53;3.22;;;26.70;98.40;;;;;;4983011;28;20206;-36
2022/07/27 11:00:49;;;;;;;4.78;3.22;;;26.90;98.30;;;;;;4982463;28;20183;-36
2022/07/27 11:03:35;;;;;;;5.18;3.13;;;27.20;98.20;;;;;;4964064;28;20218;-35
2022/07/27 11:06:24;;;;;;;4.38;3.38;;;27.30;98.70;;;;;;4977112;28;20194;-35
2022/07/27 11:08:53;;;;;;;3.50;3.20;;;27.60;97.30;;;;;;5001930;28;20195;-35
2022/07/27 11:11:22;;;;;;;3.38;3.08;;;27.30;97.00;;;;;;4980178;28;20185;-35
2022/07/27 11:13:56;;;;;;;4.82;3.45;;;27.10;97.10;;;;;;4993859;28;20188;-36
2022/07/27 11:16:23;;;;;;;3.95;3.10;;;27.00;97.40;;;;;;4989390;28;20183;-35
2022/07/27 11:19:01;;;;;;;7.80;3.10;;;26.70;97.00;;;;;;4997655;28;20178;-35
2022/07/27 11:21:29;;;;;;;3.70;3.40;;;26.50;97.20;;;;;;5005105;28;20178;-35
2022/07/27 11:24:17;;;;;;;3.88;3.03;;;26.50;98.00;;;;;;5005685;28;20261;-35
2022/07/27 11:26:51;;;;;;;5.75;2.92;;;26.60;97.20;;;;;;4993176;28;20361;-35
2022/07/27 11:29:19;;;;;;;5.40;2.95;;;26.60;97.40;;;;;;4990631;28;20179;-35
2022/07/27 11:31:49;;;;;;;4.75;3.00;;;26.40;97.40;;;;;;4979611;28;20172;-35
2022/07/27 11:34:19;;;;;;;5.25;3.17;;;26.00;97.90;;;;;;4996592;28;20180;-35
2022/07/27 11:36:50;;;;;;;4.05;3.20;;;26.00;98.20;;;;;;4964245;28;20208;-34
2022/07/27 11:39:23;;;;;;;3.03;2.83;;;25.50;97.90;;;;;;4963974;28;20180;-35
2022/07/27 11:41:54;;;;;;;5.18;3.38;;;25.40;98.70;;;;;;4987322;28;20186;-35
2022/07/27 11:44:20;;;;;;;6.55;3.20;;;25.40;98.30;;;;;;5017318;28;20203;-35
2022/07/27 11:46:47;;;;;;;4.75;3.08;;;25.30;98.30;;;;;;4975912;28;20200;-35
2022/07/27 11:49:16;;;;;;;3.10;2.78;;;25.00;97.90;;;;;;4980149;28;20234;-34
2022/07/27 11:51:45;;;;;;;5.65;2.88;;;24.80;98.40;;;;;;4963826;28;20197;-35
2022/07/27 11:54:20;;;;;;;3.88;2.60;;;24.90;98.10;;;;;;4995574;28;20205;-35
2022/07/27 11:56:55;;;;;;;3.20;2.90;;;25.00;98.40;;;;;;4999583;28;20206;-34
2022/07/27 11:59:23;;;;;;;4.32;2.78;;;25.10;98.50;;;;;;4983469;28;20238;-34
2022/07/27 12:02:01;;;;;;;2.63;2.35;;;25.10;98.30;;;;;;4982377;28;20237;-35
2022/07/27 12:04:35;;;;;;;3.67;2.40;;;25.10;98.20;;;;;;4998444;28;20202;-35
2022/07/27 12:07:18;;;;;;;3.75;2.58;;;25.40;97.70;;;;;;5014576;28;20205;-35
2022/07/27 12:09:51;;;;;;;5.40;2.85;;;25.70;97.60;;;;;;4980022;28;20274;-35
2022/07/27 12:12:26;;;;;;;4.28;2.63;;;25.90;96.40;;;;;;4979078;28;20203;-35
2022/07/27 12:14:55;;;;;;;3.70;2.40;;;25.80;94.80;;;;;;4979620;28;20186;-35
2022/07/27 12:17:27;;;;;;;3.65;2.40;;;26.00;95.40;;;;;;5012709;28;20224;-36
2022/07/27 12:20:05;;;;;;;2.60;2.40;;;26.10;96.30;;;;;;4980062;28;20185;-35
2022/07/27 12:22:37;;;;;;;2.20;2.08;;;26.20;95.90;;;;;;5013857;28;20182;-35
2022/07/27 12:25:10;;;;;;;2.58;2.38;;;26.50;95.50;;;;;;4978406;28;20182;-35
2022/07/27 12:27:37;;;;;;;3.22;2.55;;;26.40;95.80;;;;;;4980004;28;20286;-35
2022/07/27 12:30:06;;;;;;;2.30;2.10;;;26.40;96.10;;;;;;4980052;28;20180;-36
2022/07/27 12:32:41;;;;;;;2.85;2.40;;;26.70;96.00;;;;;;4979601;28;20183;-35
2022/07/27 12:35:26;;;;;;;3.85;2.25;;;26.80;94.70;;;;;;4979739;28;20187;-35
2022/07/27 12:37:58;;;;;;;4.88;2.55;;;27.20;95.00;;;;;;4984688;28;20711;-36
2022/07/27 12:40:25;;;;;;;2.92;2.63;;;27.60;94.30;;;;;;4964031;28;20231;-35
2022/07/27 12:43:01;;;;;;;3.70;2.30;;;28.00;93.40;;;;;;4975643;28;20669;-35
2022/07/27 12:45:36;;;;;;;3.30;2.10;;;28.50;93.10;;;;;;4976350;28;20302;-36
2022/07/27 12:48:10;;;;;;;3.03;2.08;;;28.90;92.90;;;;;;4979097;28;20202;-35
2022/07/27 12:50:36;;;;;;;2.10;2.00;;;29.10;92.20;;;;;;4978646;28;20191;-35
2022/07/27 12:53:02;;;;;;;3.83;2.25;;;29.40;92.30;;;;;;4991169;28;20184;-35
2022/07/27 12:55:28;;;;;;;2.42;2.22;;;28.80;91.80;;;;;;4995465;28;20221;-35
2022/07/27 12:57:54;;;;;;;2.45;2.10;;;28.60;92.10;;;;;;4977640;28;20239;-34
2022/07/27 13:00:23;;;;;;;2.58;2.35;;;28.20;92.20;;;;;;4971367;28;20204;-35
2022/07/27 13:02:49;;;;;;;5.47;2.35;;;27.80;92.10;;;;;;4984120;28;20190;-36
2022/07/27 13:05:16;;;;;;;6.05;2.53;;;27.00;92.60;;;;;;4965605;28;20214;-35